Weather observations for the past three days for
Richmond Municipal Airport
Metric (Imperial)
Date Time (edt) Wind (kph) Vis. (km) Weather Sky Cond. Temperature (ºC) Relative Humidity Wind Chill (°C) Heat Index (°C) Pressure Precipitation (cm)
Air Dwpt 6 hour altimeter (cm) sea level (mb) 1 hr 3 hr 6 hr
Max. Min.
03 17:35 SW 26 G 37 16.09 Overcast OVC110 15 0 36% 76.07 0.0
03 17:15 SE 9 16.09 Mostly Cloudy BKN110 12 1 47% 76.1 0.0
03 16:55 NE 7 16.09 Light Rain SCT048 BKN060 OVC100 12 2 51% 76.12 0.0
03 16:35 Calm 16.09 Overcast SCT014 BKN060 OVC070 10 1 54% 76.15 0.0
03 16:15 W 7 G 28 11.27 Light Rain SCT015 BKN050 OVC070 10 1 54% 9 76.23 0.0
03 15:55 SW 35 G 57 16.09 Overcast and Breezy SCT048 BKN070 OVC090 13 0 41% 76.25 0.0
03 15:35 SW 24 G 43 16.09 Mostly Cloudy BKN090 BKN110 13 0 41% 76.2 0.0
03 15:15 S 28 G 44 16.09 Partly Cloudy SCT110 14 0 39% 76.23 0.0
03 14:55 SW 28 G 39 16.09 Partly Cloudy SCT110 14 0 39% 76.25 0.0
03 14:35 SW 33 G 43 16.09 Partly Cloudy and Breezy SCT070 SCT110 15 0 36% 76.28 0.0
03 14:15 SW 28 G 35 16.09 Partly Cloudy SCT120 15 0 36% 76.28 0.0
03 13:55 S 33 G 46 16.09 Fair and Breezy CLR 13 -1 38% 76.3 0.0
03 13:35 SW 28 G 43 16.09 Fair CLR 14 -1 36% 76.33 0.0
03 13:15 SW 30 G 41 16.09 Fair CLR 14 0 39% 76.35 0.0
03 12:55 SW 31 G 39 16.09 Fair CLR 14 0 39% 76.38 0.0
03 12:35 SW 31 G 41 16.09 Fair CLR 13 0 41% 76.4 0.0
03 12:15 SW 28 G 39 16.09 Fair CLR 13 0 41% 76.4 0.0
03 11:55 SW 26 G 33 16.09 Fair CLR 12 0 44% 76.43 0.0
03 11:35 SW 26 16.09 Fair CLR 12 0 44% 76.43 0.0
03 11:15 SW 28 G 39 16.09 Fair CLR 12 0 44% 76.45 0.0
03 10:55 SW 24 16.09 Fair CLR 12 0 44% 76.43 0.0
03 10:35 SW 30 G 35 16.09 Fair CLR 11 0 47% 76.43 0.0
03 10:15 SW 26 16.09 Fair CLR 10 0 50% 7 76.43 0.0
03 09:55 SW 28 16.09 Fair CLR 8 0 57% 4 76.43 0.0
03 09:35 SW 22 16.09 Fair CLR 8 0 57% 5 76.45 0.0
03 09:15 SW 22 11.27 Fair CLR 7 0 61% 4 76.45 0.0
03 08:55 SW 19 G 28 16.09 Fair CLR 6 0 66% 3 76.45 0.0
03 08:35 SW 17 16.09 Fair CLR 5 0 70% 2 76.45 0.0
03 08:15 SW 19 16.09 Fair CLR 4 0 75% 0 76.45 0.0
03 07:55 SW 15 16.09 Fair CLR 3 0 81% -0 76.43 0.0
03 07:35 SW 13 16.09 Fair CLR 2 0 87% -1 76.4 0.0
03 07:15 SW 13 16.09 Fair CLR 2 -1 81% -1 76.4 0.0
03 06:55 SW 13 16.09 Fair CLR 2 -1 81% -1 76.4 0.0
03 06:35 SW 15 16.09 Fair CLR 2 -1 81% -2 76.38 0.0
03 06:15 SW 15 16.09 Fair CLR 2 -1 81% -2 76.38 0.0
03 05:55 SW 13 16.09 Fair CLR 2 -1 81% -1 76.35 0.0
03 05:35 SW 13 16.09 Fair CLR 2 -1 81% -1 76.38 0.0
03 05:15 SW 13 16.09 Fair CLR 1 -1 87% -2 76.35 0.0
03 04:55 SW 11 16.09 Fair CLR 2 -1 81% -1 76.38 0.0
03 04:35 SW 13 16.09 Fair CLR 1 -1 87% -2 76.35 0.0
03 04:15 SW 11 16.09 Fair CLR 1 -1 87% -2 76.38 0.0
03 03:55 SW 11 16.09 Fair CLR 2 -1 81% -1 76.38 0.0
03 03:35 SW 9 16.09 Fair CLR 1 -1 87% -2 76.35 0.0
03 03:15 SW 7 16.09 Fair CLR 1 -1 87% -1 76.38 0.0
03 02:55 SW 9 16.09 Fair CLR 1 0 93% -2 76.38 0.0
03 02:35 SW 9 16.09 Fair CLR 2 0 87% -0 76.38 0.0
03 02:15 SW 9 16.09 Fair CLR 1 0 93% -2 76.4 0.0
03 01:55 SW 11 16.09 Fair CLR 1 0 93% -2 76.4 0.0
03 01:35 SW 7 16.09 Fair CLR 2 0 87% 0 76.4 0.0
03 01:15 SW 7 16.09 Fair CLR 2 -1 81% 0 76.4 0.0
03 00:55 SW 6 16.09 Fair CLR 3 -1 75% 76.4 0.0
03 00:35 SW 6 16.09 Fair CLR 2 0 87% 76.4 0.0
03 00:15 SW 6 16.09 Fair CLR 2 0 87% 76.4 0.0
02 23:55 SW 7 16.09 Fair CLR 2 0 87% 0 76.4 0.0
02 23:35 Calm 16.09 Fair CLR 2 1 93% 76.4 0.0
02 23:15 SW 6 16.09 Fair CLR 2 0 87% 76.4 0.0
02 22:55 Calm 16.09 Fair CLR 3 0 81% 76.4 0.0
02 22:15 Calm 16.09 Fair CLR 3 0 81% 76.4 0.0
02 21:55 Calm 16.09 Fair CLR 3 0 81% 76.4 0.0
02 21:35 Calm 16.09 Fair CLR 5 -2 61% 76.4 0.0
02 21:15 Calm 16.09 Fair CLR 6 -2 57% 76.38 0.0
02 20:55 Calm 16.09 Fair CLR 6 -2 57% 76.38 0.0
02 20:35 N 6 16.09 Fair CLR 6 -2 57% 76.38 0.0
02 20:15 N 7 16.09 Fair CLR 7 -2 53% 6 76.35 0.0
02 19:55 NW 15 16.09 Mostly Cloudy BKN065 8 -3 46% 6 76.35 0.0
02 19:35 NW 11 16.09 Overcast OVC065 8 -2 50% 6 76.35 0.0
02 19:15 N 19 G 28 16.09 Overcast SCT055 OVC065 8 -2 50% 5 76.35 0.0
02 18:55 N 20 16.09 Overcast SCT055 OVC065 8 -2 50% 5 76.35 0.0
02 18:35 NW 17 G 30 16.09 Overcast OVC065 8 -2 50% 6 76.35 0.0
02 18:15 NW 19 G 31 16.09 Mostly Cloudy SCT055 BKN065 8 -2 50% 5 76.35 0.0
02 17:55 NW 22 G 31 16.09 Mostly Cloudy SCT055 BKN065 9 -2 46% 6 76.33 0.0
02 17:35 NW 22 G 28 16.09 Mostly Cloudy SCT055 BKN065 8 -2 50% 5 76.33 0.0
02 17:15 N 13 16.09 Mostly Cloudy BKN065 9 -1 50% 7 76.33 0.0
02 16:55 NW 19 G 26 16.09 Mostly Cloudy BKN055 BKN070 10 -2 43% 8 76.33 0.0
02 16:35 N 15 16.09 Mostly Cloudy BKN055 8 -2 50% 6 76.33 0.0
02 16:15 NW 13 G 31 16.09 Mostly Cloudy SCT055 BKN065 10 -2 43% 8 76.33 0.0
02 15:55 NW 17 G 26 16.09 Partly Cloudy SCT055 10 -2 43% 8 76.33 0.0
02 15:35 NW 17 16.09 Mostly Cloudy BKN055 10 -2 43% 8 76.35 0.0
02 15:15 N 20 G 30 16.09 Mostly Cloudy BKN055 11 -1 44% 76.35 0.0
02 14:55 W 20 G 30 16.09 Partly Cloudy SCT055 10 -2 43% 8 76.35 0.0
02 14:35 NW 24 16.09 Mostly Cloudy BKN055 9 -3 43% 6 76.38 0.0
02 14:15 NW 17 G 28 16.09 Mostly Cloudy BKN055 8 -2 50% 6 76.38 0.0
02 13:55 NW 20 G 30 16.09 Partly Cloudy SCT055 9 -2 46% 6 76.38 0.0
02 13:35 NW 17 G 30 16.09 Partly Cloudy SCT055 9 -2 46% 7 76.4 0.0
02 13:15 NW 17 16.09 Partly Cloudy SCT055 8 -2 50% 6 76.4 0.0
02 12:55 N 20 16.09 Partly Cloudy SCT055 8 -2 50% 5 76.4 0.0
02 12:35 N 15 16.09 Partly Cloudy SCT050 8 -2 50% 6 76.43 0.0
02 12:15 N 7 16.09 Partly Cloudy SCT050 8 -2 50% 7 76.43 0.0
02 11:55 NW 15 16.09 Fair CLR 7 -3 49% 5 76.43 0.0
02 11:35 NW 9 16.09 Fair CLR 7 -3 49% 5 76.45 0.0
02 11:15 N 13 16.09 Fair CLR 7 -2 53% 5 76.43 0.0
02 10:55 N 13 16.09 Fair CLR 7 -2 53% 5 76.43 0.0
02 10:35 NW 17 G 26 16.09 Fair CLR 6 -2 57% 3 76.43 0.0
02 10:15 N 15 16.09 Fair CLR 6 -2 57% 3 76.43 0.0
02 09:55 NW 15 16.09 Fair CLR 6 -2 57% 3 76.43 0.0
02 09:35 NW 15 16.09 Fair CLR 5 -2 61% 2 76.43 0.0
02 09:15 N 11 16.09 Fair CLR 5 -1 66% 3 76.43 0.0
02 08:55 N 9 16.09 Fair CLR 4 -1 70% 2 76.4 0.0
02 08:35 N 13 16.09 Fair CLR 3 -1 75% 0 76.4 0.0
02 08:15 N 11 16.09 Fair CLR 2 -2 75% -1 76.4 0.0
02 07:55 N 11 16.09 Partly Cloudy SCT050 SCT060 2 -1 81% -1 76.38 0.0
02 07:35 NW 6 16.09 Fair CLR 1 0 93% 76.38 0.0
02 07:15 N 7 16.09 Fair CLR 1 -1 87% -1 76.35 0.0
02 06:55 NW 7 16.09 Fair CLR 1 -1 87% -1 76.35 0.0
02 06:35 NW 9 16.09 Fair CLR 1 -1 87% -2 76.35 0.0
02 06:15 N 7 16.09 Fair CLR 1 0 93% -1 76.35 0.0
02 05:55 NW 7 16.09 Fair CLR 2 0 87% 0 76.35 0.0
02 05:35 Calm 16.09 Mostly Cloudy SCT047 BKN070 2 0 87% 76.35 0.0
02 05:15 N 6 16.09 Overcast SCT049 BKN060 OVC070 3 0 81% 76.35 0.0
02 04:55 N 6 16.09 Overcast BKN049 BKN060 OVC070 3 0 81% 76.35 0.0
02 04:35 Calm 16.09 Overcast SCT060 OVC070 3 0 81% 76.35 0.0
02 04:15 Calm 16.09 Overcast BKN049 BKN060 OVC070 3 0 81% 76.33 0.0
02 03:55 N 9 16.09 Overcast BKN049 BKN060 OVC075 3 0 81% 1 76.33 0.0
02 03:35 N 7 16.09 Overcast OVC049 3 0 81% 1 76.33 0.0
02 03:15 NW 6 16.09 Mostly Cloudy BKN049 BKN060 BKN070 2 0 87% 76.35 0.0
02 02:55 N 6 16.09 Partly Cloudy SCT049 SCT060 SCT070 2 0 87% 76.35 0.0
02 02:35 N 6 16.09 Partly Cloudy SCT080 2 0 87% 76.35 0.0
02 02:15 Calm 16.09 Mostly Cloudy BKN080 2 0 87% 76.35 0.0
02 01:55 N 6 16.09 Partly Cloudy SCT070 2 0 87% 76.35 0.0
02 01:35 Calm 16.09 Partly Cloudy SCT070 3 0 81% 76.38 0.0
02 01:15 NW 6 16.09 Fair CLR 3 0 81% 76.38 0.0
02 00:55 Calm 16.09 Fair CLR 3 0 81% 76.38 0.0
02 00:35 N 6 16.09 Fair CLR 4 0 75% 76.38 0.0
02 00:15 Calm 16.09 Fair CLR 4 0 75% 76.38 0.0
01 23:55 N 7 16.09 Partly Cloudy SCT080 4 0 75% 2 76.38 0.0
01 23:35 N 6 16.09 Partly Cloudy SCT080 4 1 81% 76.38 0.0
01 23:15 NW 7 16.09 Fair CLR 4 1 81% 2 76.38 0.0
01 22:55 NW 7 16.09 Fair CLR 5 1 76% 4 76.38 0.0
01 22:35 Calm 16.09 Fair CLR 4 2 87% 76.38 0.0
01 22:15 Calm 16.09 Fair CLR 5 1 76% 76.35 0.0
01 21:55 Calm 16.09 Fair CLR 6 1 71% 76.33 0.0
01 21:35 NW 7 16.09 Fair CLR 6 1 71% 5 76.28 0.0
01 21:15 NW 7 16.09 Partly Cloudy SCT080 6 1 71% 5 76.25 0.0
01 20:55 NW 9 16.09 Mostly Cloudy BKN080 7 1 66% 5 76.25 0.0
01 20:35 N 13 16.09 Overcast OVC090 7 1 66% 5 76.2 0.0
01 20:15 NW 19 G 30 16.09 Overcast OVC090 8 1 62% 5 76.23 0.0
01 19:55 NW 15 16.09 Mostly Cloudy SCT045 SCT050 BKN090 8 1 62% 6 76.23 0.0
01 19:35 NW 15 16.09 Partly Cloudy SCT045 SCT055 10 1 54% 8 76.2 0.0
01 19:15 NW 24 G 30 16.09 Partly Cloudy SCT043 SCT085 10 1 54% 7 76.17 0.0
01 18:55 NW 13 16.09 Mostly Cloudy SCT044 BKN085 10 1 54% 8 76.17 0.0
01 18:35 NW 11 16.09 Mostly Cloudy BKN046 BKN060 BKN075 10 1 54% 9 76.17 0.0
01 18:15 W 19 G 30 16.09 Mostly Cloudy SCT060 BKN070 10 1 54% 8 76.17 0.0
01 17:55 NW 17 16.09 Overcast SCT045 SCT070 OVC075 9 1 58% 7 76.2 0.0
01 17:35 NW 13 G 30 16.09 Mostly Cloudy SCT049 BKN070 10 0 50% 8 76.2 0.0
01 17:15 NW 17 16.09 Overcast SCT047 BKN060 OVC070 10 1 54% 8 76.17 0.0
01 16:55 NW 22 G 30 16.09 Mostly Cloudy SCT045 BKN060 BKN070 10 1 54% 7 76.2 0.0
01 16:35 NW 13 G 28 16.09 Mostly Cloudy SCT040 SCT049 BKN065 11 1 50% 76.2 0.0
01 16:15 W 20 G 30 16.09 Overcast SCT042 BKN055 OVC065 10 1 54% 8 76.2 0.0
01 15:55 NW 19 G 30 16.09 Overcast SCT038 OVC050 9 1 58% 7 76.2 0.0
01 15:35 N 17 G 28 16.09 Mostly Cloudy SCT032 BKN041 BKN048 10 2 58% 8 76.2 0.0
01 15:15 NW 9 G 30 16.09 Overcast SCT026 SCT032 OVC041 10 3 62% 9 76.2 0.0
01 14:55 NW 17 16.09 Overcast BKN026 OVC032 8 3 71% 6 76.2 0.0
01 14:15 NW 26 16.09 Overcast BKN022 OVC033 8 3 71% 5 76.17 0.0
01 13:55 NW 20 16.09 Overcast BKN022 OVC028 8 3 71% 5 76.15 0.0
01 13:35 NW 19 16.09 Mostly Cloudy BKN019 BKN025 8 4 76% 5 76.15 0.0
01 13:15 NW 22 G 39 16.09 Overcast BKN019 OVC023 7 3 76% 4 76.15 0.0
01 12:55 NW 26 G 35 16.09 Overcast BKN019 OVC028 8 4 76% 5 76.12 0.0
01 12:35 NW 28 G 35 16.09 Overcast BKN017 OVC024 8 3 71% 4 76.1 0.0
01 12:15 NW 24 G 39 16.09 Overcast SCT017 BKN029 OVC034 8 5 82% 5 76.07 0.0
01 11:55 NW 28 G 46 16.09 Overcast BKN017 BKN028 OVC034 8 5 82% 4 76.05 0.0
01 11:35 W 31 G 43 16.09 Overcast BKN017 BKN030 OVC035 8 5 82% 4 76.02 0.0
01 11:15 W 31 G 41 16.09 Overcast SCT011 SCT017 OVC032 8 5 82% 4 76 0.0
01 10:55 NW 33 G 52 16.09 Overcast and Breezy BKN013 OVC021 8 6 87% 4 75.97 0.0
01 10:35 W 15 16.09 Overcast BKN013 BKN025 OVC060 8 7 93% 6 75.95 0.0
01 10:15 W 19 16.09 Overcast SCT017 BKN046 OVC060 8 6 87% 5 75.95 0.0
01 09:55 W 20 G 37 11.27 Light Rain BKN016 OVC021 7 6 93% 4 75.95 0.0
01 09:35 W 20 16.09 Light Drizzle BKN020 BKN028 OVC038 8 5 82% 5 75.95 0.0
01 09:15 SW 15 16.09 Overcast SCT025 BKN030 OVC038 8 5 82% 6 75.92 0.0
01 08:55 SW 11 16.09 Overcast BKN027 OVC038 8 5 82% 6 75.92 0.0
01 08:35 SW 9 16.09 Overcast BKN038 OVC045 8 5 82% 7 75.92 0.0
01 08:15 SW 9 16.09 Light Rain BKN044 OVC050 7 5 87% 5 75.92 0.0
01 07:55 SW 6 16.09 Light Rain OVC047 7 5 87% 75.92 0.0
01 07:35 Calm 16.09 Overcast BKN049 OVC060 7 4 81% 75.92 0.0
01 07:15 W 11 16.09 Overcast BKN060 OVC070 7 4 81% 5 75.92 0.0
01 06:55 NW 9 16.09 Overcast OVC060 7 5 87% 5 75.92 0.0
01 06:35 SW 7 16.09 Light Rain OVC060 8 3 71% 7 75.92 0.0
01 06:15 SW 7 16.09 Overcast OVC060 8 4 76% 7 75.92 0.0
01 05:55 S 15 16.09 Overcast BKN060 OVC070 7 4 81% 5 75.95 0.0
01 05:35 S 17 16.09 Overcast BKN065 OVC080 7 4 81% 4 75.95 0.0
01 05:15 S 13 16.09 Overcast BKN065 OVC075 7 4 81% 5 75.95 0.0
01 04:55 S 11 16.09 Overcast SCT065 OVC075 7 4 81% 5 75.97 0.0
01 04:35 S 9 16.09 Overcast OVC075 7 4 81% 5 76 0.0
01 04:15 S 13 16.09 Overcast OVC075 7 3 76% 5 75.97 0.0
01 03:55 S 17 16.09 Overcast BKN075 OVC090 7 3 76% 4 76 0.0
01 03:35 S 15 16.09 Overcast SCT075 OVC090 8 3 71% 6 76 0.0
01 03:15 S 15 16.09 Overcast SCT075 OVC090 7 4 81% 5 76.02 0.0
01 02:55 S 11 16.09 Overcast OVC090 8 4 76% 6 76.05 0.0
01 02:35 S 15 16.09 Overcast OVC100 7 4 81% 5 76.05 0.0
01 02:15 S 13 16.09 Mostly Cloudy SCT090 BKN110 7 5 87% 5 76.07 0.0
01 01:55 S 9 16.09 Partly Cloudy SCT080 SCT090 7 5 87% 5 76.1 0.0
01 01:35 S 9 16.09 Partly Cloudy SCT080 SCT095 7 5 87% 5 76.1 0.0
01 01:15 S 11 16.09 Overcast OVC095 7 5 87% 5 76.1 0.0
01 00:55 S 13 16.09 Overcast OVC095 8 4 76% 6 76.1 0.0
01 00:35 S 11 16.09 Overcast OVC095 7 5 87% 5 76.12 0.0
01 00:15 S 13 16.09 Mostly Cloudy BKN095 7 5 87% 5 76.12 0.0
30 23:55 S 11 16.09 Fair CLR 7 5 87% 5 76.15 0.0
30 23:35 S 9 16.09 Partly Cloudy SCT110 7 5 87% 5 76.15 0.0
30 23:15 S 9 16.09 Mostly Cloudy BKN110 7 5 87% 5 76.17 0.0
30 22:55 S 13 16.09 Mostly Cloudy BKN100 7 5 87% 5 76.17 0.0
30 22:35 S 9 16.09 Mostly Cloudy BKN100 7 5 87% 5 76.17 0.0
30 22:15 S 9 16.09 Fair CLR 7 5 87% 5 76.2 0.0
30 21:55 S 9 16.09 Fair CLR 7 5 87% 5 76.17 0.0
30 21:35 S 9 16.09 Fair CLR 8 5 82% 7 76.15 0.0
30 21:15 SW 7 16.09 Fair CLR 8 5 82% 7 76.17 0.0
30 20:55 S 6 16.09 Fair CLR 10 5 71% 76.15 0.0
30 20:35 SW 7 16.09 Fair CLR 10 5 71% 9 76.15 0.0
30 20:15 W 6 16.09 Fair CLR 11 3 58% 76.15 0.0
30 19:55 W 9 16.09 Fair CLR 11 2 54% 76.15 0.0
30 19:35 NW 6 16.09 Partly Cloudy SCT065 12 1 47% 76.15 0.0
30 19:15 NW 9 16.09 Mostly Cloudy BKN065 12 1 47% 76.17 0.0
30 18:55 Calm 16.09 Mostly Cloudy SCT055 BKN065 12 1 47% 76.17 0.0
30 18:35 NW 9 16.09 Mostly Cloudy SCT055 BKN065 12 1 47% 76.2 0.0
30 18:15 W 13 16.09 Mostly Cloudy BKN060 13 1 44% 76.2 0.0
30 17:55 W 15 16.09 Mostly Cloudy BKN060 12 1 47% 76.2 0.0
Date Time (edt) Wind (kph) Vis. (km) Weather Sky Cond. Air Dwpt Max. Min. Relative Humidity Wind Chill (°C) Heat Index (°C) altimeter (cm) sea level (mb) 1 hr 3 hr 6 hr
6 hour
Temperature (ºC) Pressure Precipitation (cm)